Time;durP1;ratioP1;P1;durP2;ratioP2;P2;SDS_P1;SDS_P2;PMS_P1;PMS_P2;Temp;Humidity;BMP_temperature;BMP_pressure;BME280_temperature;BME280_humidity;BME280_pressure;Samples;Min_cycle;Max_cycle;Signal;HPM_P1;HPM_P2
2022/03/09 00:01:09;;;;;;;5.00;2.97;;;-1.20;1.00;;;;;;4887860;29;20066;-92
2022/03/09 00:03:35;;;;;;;8.50;4.47;;;-1.20;1.00;;;;;;4888838;29;20055;-95
2022/03/09 00:06:01;;;;;;;6.20;2.97;;;-1.10;1.00;;;;;;4888137;29;20048;-96
2022/03/09 00:08:27;;;;;;;4.27;2.47;;;-1.20;1.00;;;;;;4889121;29;20063;-92
2022/03/09 00:10:53;;;;;;;3.87;2.43;;;-1.20;1.00;;;;;;4902749;29;20048;-92
2022/03/09 00:13:19;;;;;;;5.70;2.63;;;-1.20;1.00;;;;;;4888468;29;20488;-91
2022/03/09 00:15:44;;;;;;;5.30;2.83;;;-1.30;1.00;;;;;;4887564;29;20433;-92
2022/03/09 00:18:11;;;;;;;5.10;2.63;;;-1.40;1.00;;;;;;4902757;29;20052;-92
2022/03/09 00:20:37;;;;;;;4.63;2.57;;;-1.20;1.00;;;;;;4887845;29;20044;-95
2022/03/09 00:23:02;;;;;;;4.40;2.47;;;-1.30;1.00;;;;;;4904218;29;20050;-96
2022/03/09 00:25:31;;;;;;;4.00;2.57;;;-1.50;99.90;;;;;;4888706;29;20135;-92
2022/03/09 00:27:58;;;;;;;8.03;3.00;;;-1.50;1.00;;;;;;4904730;29;20403;-96
2022/03/09 00:30:24;;;;;;;4.37;2.27;;;-1.60;1.00;;;;;;4888699;29;20044;-92
2022/03/09 00:32:50;;;;;;;5.27;2.70;;;-1.40;1.00;;;;;;4888896;29;20044;-92
2022/03/09 00:35:16;;;;;;;6.87;2.57;;;-1.40;1.00;;;;;;4887339;29;20079;-92
2022/03/09 00:37:43;;;;;;;4.07;2.57;;;-1.60;1.00;;;;;;4887070;29;20113;-92
2022/03/09 00:40:09;;;;;;;5.47;2.90;;;-1.10;1.00;;;;;;4891407;29;20048;-91
2022/03/09 00:42:37;;;;;;;7.43;3.03;;;-1.60;1.00;;;;;;4889796;29;20048;-91
2022/03/09 00:45:04;;;;;;;7.07;2.50;;;-1.60;1.00;;;;;;4886837;29;20052;-92
2022/03/09 00:47:30;;;;;;;5.20;2.43;;;-1.60;1.00;;;;;;4887768;29;20107;-92
2022/03/09 00:49:58;;;;;;;5.87;2.30;;;-1.60;1.00;;;;;;4902173;29;20052;-93
2022/03/09 00:52:25;;;;;;;4.13;2.53;;;-1.60;1.00;;;;;;4887606;29;20525;-96
2022/03/09 00:54:53;;;;;;;6.93;2.77;;;-1.60;1.00;;;;;;4887460;29;20507;-91
2022/03/09 00:57:19;;;;;;;4.87;2.80;;;-1.50;1.00;;;;;;4886782;29;20452;-92
2022/03/09 00:59:45;;;;;;;4.73;2.50;;;-1.50;1.00;;;;;;4886611;29;20120;-92
2022/03/09 01:02:11;;;;;;;5.07;2.73;;;-1.60;1.00;;;;;;4886467;29;20048;-96
2022/03/09 01:04:37;;;;;;;6.23;2.60;;;-1.60;1.00;;;;;;4886989;29;20089;-92
2022/03/09 01:07:03;;;;;;;5.50;2.77;;;-1.60;1.00;;;;;;4901383;29;20060;-91
2022/03/09 01:09:30;;;;;;;6.87;3.00;;;-1.70;1.00;;;;;;4888487;29;20052;-91
2022/03/09 01:11:57;;;;;;;5.33;2.83;;;-1.80;1.00;;;;;;4887179;29;20044;-91
2022/03/09 01:14:23;;;;;;;6.87;3.17;;;-1.80;1.00;;;;;;4888550;29;20077;-95
2022/03/09 01:16:49;;;;;;;5.33;3.07;;;-1.80;1.00;;;;;;4886724;29;20507;-96
2022/03/09 01:19:15;;;;;;;5.77;2.93;;;-1.80;1.00;;;;;;4886523;29;20075;-92
2022/03/09 01:21:41;;;;;;;7.37;2.90;;;-1.80;1.00;;;;;;4888825;29;20108;-96
2022/03/09 01:24:07;;;;;;;6.87;3.17;;;-1.70;1.00;;;;;;4918601;29;20079;-93
2022/03/09 01:26:34;;;;;;;5.70;3.00;;;-1.80;1.00;;;;;;4887453;29;20062;-91
2022/03/09 01:28:59;;;;;;;4.63;2.97;;;-1.80;1.00;;;;;;4888470;29;20080;-96
2022/03/09 01:31:25;;;;;;;4.97;3.03;;;-1.40;1.00;;;;;;4901968;29;20044;-92
2022/03/09 01:33:51;;;;;;;5.30;3.60;;;-1.60;1.00;;;;;;4887110;29;20052;-92
2022/03/09 01:36:17;;;;;;;7.90;3.63;;;-2.00;1.00;;;;;;4889202;29;20095;-92
2022/03/09 01:38:55;;;;;;;8.27;3.70;;;-2.00;1.00;;;;;;4903175;29;20119;-94
2022/03/09 01:41:21;;;;;;;6.27;3.43;;;-2.20;1.00;;;;;;4903937;29;20096;-91
2022/03/09 01:44:08;;;;;;;6.13;3.70;;;-2.20;1.00;;;;;;4902280;29;20048;-95
2022/03/09 01:46:35;;;;;;;6.47;3.43;;;-2.10;1.00;;;;;;4904894;29;20051;-96
2022/03/09 01:49:04;;;;;;;5.03;3.27;;;-2.10;1.00;;;;;;4889554;29;20044;-91
2022/03/09 01:51:32;;;;;;;7.33;3.30;;;-2.20;1.00;;;;;;4893623;29;20479;-91
2022/03/09 01:53:58;;;;;;;6.30;2.83;;;-1.20;1.00;;;;;;4890920;29;20092;-96
2022/03/09 01:56:25;;;;;;;8.27;3.57;;;-2.10;1.00;;;;;;4891362;29;20480;-96
2022/03/09 01:58:50;;;;;;;6.60;3.93;;;-2.10;1.00;;;;;;4890566;29;20079;-95
2022/03/09 02:01:17;;;;;;;7.50;3.60;;;-2.10;1.00;;;;;;4891673;29;20067;-91
2022/03/09 02:03:42;;;;;;;6.00;3.80;;;-2.20;1.00;;;;;;4894528;29;20052;-92
2022/03/09 02:06:09;;;;;;;7.43;3.80;;;-2.10;1.00;;;;;;4892228;29;20055;-92
2022/03/09 02:11:23;;;;;;;8.27;3.80;;;-2.00;1.00;;;;;;4907258;29;20140;-91
2022/03/09 02:13:48;;;;;;;5.87;3.77;;;-1.90;37.60;;;;;;4891039;29;20076;-91
2022/03/09 02:16:15;;;;;;;7.77;4.53;;;-1.50;1.00;;;;;;4890974;29;20093;-91
2022/03/09 02:18:41;;;;;;;8.23;4.00;;;-1.90;1.00;;;;;;4890111;29;20112;-95
2022/03/09 02:21:10;;;;;;;6.80;3.97;;;-1.90;1.00;;;;;;4893102;29;20048;-96
2022/03/09 02:23:36;;;;;;;6.53;3.50;;;-1.90;1.00;;;;;;4892607;29;20134;-95
2022/03/09 02:26:02;;;;;;;8.10;3.83;;;-1.80;1.60;;;;;;4895363;29;20080;-93
2022/03/09 02:28:29;;;;;;;10.53;4.23;;;-1.80;21.10;;;;;;4889625;29;20051;-91
2022/03/09 02:30:56;;;;;;;7.87;3.83;;;-1.80;47.90;;;;;;4908141;29;20052;-96
2022/03/09 02:33:22;;;;;;;6.80;3.97;;;-1.70;19.20;;;;;;4891465;29;20048;-95
2022/03/09 02:35:48;;;;;;;6.20;3.73;;;-1.50;18.20;;;;;;4907161;29;20119;-96
2022/03/09 02:38:15;;;;;;;5.80;3.37;;;-1.60;25.20;;;;;;4891508;29;20044;-92
2022/03/09 02:40:45;;;;;;;7.67;4.10;;;-1.60;15.40;;;;;;4889569;29;20080;-94
2022/03/09 02:43:11;;;;;;;10.77;4.77;;;-1.70;8.80;;;;;;4890908;29;20104;-91
2022/03/09 02:45:37;;;;;;;6.50;3.97;;;-1.60;24.10;;;;;;4891506;29;20052;-91
2022/03/09 02:48:08;;;;;;;8.70;4.63;;;-1.70;54.20;;;;;;4904598;29;20452;-96
2022/03/09 02:50:34;;;;;;;7.87;3.93;;;-1.70;35.00;;;;;;4890427;29;20056;-96
2022/03/09 02:53:00;;;;;;;7.40;4.77;;;-1.70;42.60;;;;;;4891061;29;20044;-91
2022/03/09 02:55:29;;;;;;;8.30;4.37;;;-1.80;35.60;;;;;;4892360;29;20067;-96
2022/03/09 02:57:55;;;;;;;10.30;4.00;;;-1.90;49.50;;;;;;4891114;29;20411;-92
2022/03/09 03:00:21;;;;;;;7.43;4.87;;;-1.40;59.40;;;;;;4889524;29;20064;-96
2022/03/09 03:02:47;;;;;;;11.07;4.73;;;-1.90;53.90;;;;;;4938425;29;20048;-93
2022/03/09 03:05:13;;;;;;;6.43;4.20;;;-2.10;55.70;;;;;;4891421;29;20044;-92
2022/03/09 03:07:39;;;;;;;9.50;4.70;;;-2.00;72.80;;;;;;4892805;29;20480;-91
2022/03/09 03:10:06;;;;;;;7.70;4.30;;;-2.10;48.10;;;;;;4892926;29;20134;-94
2022/03/09 03:12:32;;;;;;;10.10;4.47;;;-2.10;27.80;;;;;;4892025;29;20048;-91
2022/03/09 03:14:58;;;;;;;8.07;4.30;;;-2.20;44.20;;;;;;4889406;29;20044;-91
2022/03/09 03:17:24;;;;;;;10.17;4.97;;;-2.30;47.20;;;;;;4893022;29;20048;-96
2022/03/09 03:19:50;;;;;;;7.90;4.70;;;-2.10;68.10;;;;;;4894623;29;20139;-92
2022/03/09 03:22:16;;;;;;;7.67;4.40;;;-2.20;66.20;;;;;;4891020;29;20087;-96
2022/03/09 03:24:43;;;;;;;9.23;4.90;;;-2.20;69.50;;;;;;4894144;29;20048;-96
2022/03/09 03:27:09;;;;;;;7.57;4.50;;;-2.20;66.80;;;;;;4894143;29;20044;-96
2022/03/09 03:29:35;;;;;;;8.70;4.77;;;-2.20;99.90;;;;;;4892297;29;20052;-92
2022/03/09 03:32:03;;;;;;;8.43;4.80;;;-2.30;99.90;;;;;;4890961;29;20050;-96
2022/03/09 03:34:29;;;;;;;16.67;4.43;;;-2.20;99.90;;;;;;4892399;29;20137;-96
2022/03/09 03:36:59;;;;;;;9.13;5.23;;;-2.20;99.90;;;;;;4889293;29;20048;-96
2022/03/09 03:39:25;;;;;;;8.50;4.77;;;-2.10;99.90;;;;;;4889988;29;20040;-96
2022/03/09 03:41:51;;;;;;;8.33;4.70;;;-2.00;99.90;;;;;;4890853;29;20108;-96
2022/03/09 03:44:17;;;;;;;9.90;5.27;;;-1.80;99.90;;;;;;4888868;29;20492;-91
2022/03/09 03:46:44;;;;;;;8.73;4.97;;;-2.00;99.90;;;;;;4888844;29;20058;-95
2022/03/09 03:49:10;;;;;;;10.37;5.47;;;-2.20;99.90;;;;;;4888261;29;20040;-91
2022/03/09 03:51:36;;;;;;;9.60;4.93;;;-2.40;98.00;;;;;;4888745;29;20055;-96
2022/03/09 03:54:01;;;;;;;8.90;5.03;;;-2.50;99.90;;;;;;4889936;29;20044;-91
2022/03/09 03:56:27;;;;;;;8.50;4.70;;;-2.50;99.90;;;;;;4906403;29;20055;-96
2022/03/09 03:58:53;;;;;;;8.50;4.87;;;-2.60;99.90;;;;;;4905301;29;20086;-91
2022/03/09 04:01:19;;;;;;;12.20;5.07;;;-2.50;99.90;;;;;;4902285;29;20132;-91
2022/03/09 04:03:45;;;;;;;11.23;5.27;;;-2.50;99.90;;;;;;4888203;29;20052;-91
2022/03/09 04:06:11;;;;;;;10.60;5.97;;;-2.50;99.90;;;;;;4888561;29;20055;-96
2022/03/09 04:08:36;;;;;;;10.40;5.30;;;-2.60;99.90;;;;;;4887623;29;20113;-93
2022/03/09 04:11:07;;;;;;;9.50;5.20;;;-2.50;99.90;;;;;;4888286;29;20083;-91
2022/03/09 04:13:34;;;;;;;10.93;5.43;;;-2.50;99.90;;;;;;4887341;29;20415;-91
2022/03/09 04:15:59;;;;;;;11.63;5.60;;;-1.60;99.90;;;;;;4886729;29;20048;-95
2022/03/09 04:18:25;;;;;;;9.43;5.43;;;-2.50;99.90;;;;;;4887982;29;20052;-90
2022/03/09 04:20:51;;;;;;;10.20;5.30;;;-2.60;99.90;;;;;;4887161;29;20059;-91
2022/03/09 04:23:17;;;;;;;9.77;5.30;;;-2.50;99.90;;;;;;4885884;29;20080;-91
2022/03/09 04:25:43;;;;;;;10.10;5.60;;;-2.60;99.90;;;;;;4887055;29;20048;-91
2022/03/09 04:28:09;;;;;;;13.30;5.80;;;-2.60;99.90;;;;;;4901563;29;20052;-91
2022/03/09 04:30:35;;;;;;;8.20;5.30;;;-2.60;99.90;;;;;;4886384;29;20063;-90
2022/03/09 04:33:01;;;;;;;11.07;5.90;;;-2.70;99.90;;;;;;4885935;29;20044;-90
2022/03/09 04:35:27;;;;;;;10.10;6.33;;;-2.70;99.90;;;;;;4885708;29;20052;-90
2022/03/09 04:37:53;;;;;;;10.97;6.30;;;-2.70;99.90;;;;;;4885797;29;20055;-91
2022/03/09 04:40:18;;;;;;;9.73;5.30;;;-2.50;99.90;;;;;;4886418;29;20048;-90
2022/03/09 04:42:44;;;;;;;18.57;6.97;;;-2.70;99.90;;;;;;4885378;29;20073;-96
2022/03/09 04:45:10;;;;;;;10.13;5.90;;;-2.70;99.90;;;;;;4885859;29;20043;-90
2022/03/09 04:47:36;;;;;;;9.83;6.47;;;-2.70;99.90;;;;;;4885619;29;20555;-96
2022/03/09 04:50:03;;;;;;;13.37;6.40;;;-2.70;99.90;;;;;;4885480;29;20071;-95
2022/03/09 04:52:29;;;;;;;11.63;6.03;;;-2.70;99.90;;;;;;4901241;29;20102;-96
2022/03/09 04:54:55;;;;;;;11.90;5.60;;;-2.70;99.90;;;;;;4901124;29;20040;-95
2022/03/09 04:57:21;;;;;;;10.20;5.43;;;-2.60;99.90;;;;;;4886292;29;20203;-91
2022/03/09 04:59:47;;;;;;;13.77;6.23;;;-2.70;99.90;;;;;;4884963;29;20063;-91
2022/03/09 05:02:13;;;;;;;10.53;5.87;;;-2.10;99.90;;;;;;4900799;29;20048;-94
2022/03/09 05:04:39;;;;;;;11.30;5.90;;;-2.70;99.90;;;;;;4885093;29;20100;-91
2022/03/09 05:07:05;;;;;;;10.50;5.60;;;-2.70;99.90;;;;;;4885168;29;20191;-91
2022/03/09 05:09:30;;;;;;;9.17;5.97;;;-2.80;99.90;;;;;;4885935;29;20112;-95
2022/03/09 05:11:56;;;;;;;12.70;6.30;;;-2.10;99.90;;;;;;4886044;29;20397;-96
2022/03/09 05:14:22;;;;;;;13.13;6.50;;;-2.70;99.90;;;;;;4900352;29;20055;-94
2022/03/09 05:16:48;;;;;;;10.33;6.13;;;-2.60;99.90;;;;;;4885081;29;20088;-90
2022/03/09 05:19:14;;;;;;;9.77;5.80;;;-2.70;99.90;;;;;;4884905;29;20108;-91
2022/03/09 05:21:40;;;;;;;12.13;6.43;;;-2.80;99.90;;;;;;4885077;29;20411;-91
2022/03/09 05:24:06;;;;;;;12.73;6.63;;;-2.80;99.90;;;;;;4889349;29;20051;-90
2022/03/09 05:26:32;;;;;;;9.43;6.20;;;-3.00;99.90;;;;;;4888806;29;20052;-96
2022/03/09 05:28:58;;;;;;;12.57;7.10;;;-3.00;99.90;;;;;;4889336;29;20048;-93
2022/03/09 05:31:24;;;;;;;11.87;6.73;;;-2.70;99.90;;;;;;4888850;29;20086;-95
2022/03/09 05:33:50;;;;;;;10.33;6.37;;;-3.10;99.90;;;;;;4888653;29;20052;-94
2022/03/09 05:36:16;;;;;;;12.67;5.93;;;-3.10;99.90;;;;;;4888713;29;20416;-90
2022/03/09 05:38:42;;;;;;;10.20;6.00;;;-3.20;99.90;;;;;;4890362;29;20052;-93
2022/03/09 05:41:07;;;;;;;13.27;6.63;;;-3.30;99.90;;;;;;4920304;29;20080;-95
2022/03/09 05:43:34;;;;;;;10.57;6.20;;;-3.30;99.90;;;;;;4888714;29;20048;-92
2022/03/09 05:46:00;;;;;;;12.00;6.67;;;-3.40;99.90;;;;;;4888395;29;20135;-96
2022/03/09 05:48:26;;;;;;;10.87;6.37;;;-3.30;99.90;;;;;;4888654;29;20397;-90
2022/03/09 05:50:52;;;;;;;10.17;6.57;;;-3.40;99.90;;;;;;4888421;29;20135;-95
2022/03/09 05:53:18;;;;;;;11.83;6.50;;;-3.30;99.90;;;;;;4891352;29;20044;-90
2022/03/09 05:55:43;;;;;;;12.10;6.67;;;-3.30;99.90;;;;;;4888562;29;20044;-94
2022/03/09 05:58:09;;;;;;;12.27;6.47;;;-3.30;99.90;;;;;;4904124;29;20048;-91
2022/03/09 06:00:35;;;;;;;12.23;6.53;;;-3.30;99.90;;;;;;4905194;29;20159;-96
2022/03/09 06:03:01;;;;;;;12.30;7.13;;;-3.20;99.90;;;;;;4903572;29;20052;-90
2022/03/09 06:05:27;;;;;;;18.80;6.80;;;-3.20;99.90;;;;;;4888233;29;20088;-90
2022/03/09 06:07:52;;;;;;;17.00;6.50;;;-3.00;99.90;;;;;;4889298;29;20044;-90
2022/03/09 06:10:19;;;;;;;12.07;7.13;;;-3.10;99.90;;;;;;4888065;29;20048;-90
2022/03/09 06:12:44;;;;;;;13.00;6.87;;;-3.10;99.90;;;;;;4888056;29;20051;-90
2022/03/09 06:15:10;;;;;;;12.17;6.90;;;-3.20;99.90;;;;;;4903457;29;20045;-89
2022/03/09 06:17:44;;;;;;;13.13;6.60;;;-2.60;99.90;;;;;;4887782;29;20051;-95
2022/03/09 06:20:11;;;;;;;10.90;6.20;;;-3.20;99.90;;;;;;4888156;29;20516;-91
2022/03/09 06:22:37;;;;;;;12.27;6.93;;;-3.20;99.90;;;;;;4890427;29;20051;-90
2022/03/09 06:25:03;;;;;;;10.40;6.47;;;-3.20;99.90;;;;;;4888218;29;20044;-90
2022/03/09 06:27:46;;;;;;;15.77;7.50;;;-3.20;99.90;;;;;;4887757;29;20083;-96
2022/03/09 06:30:13;;;;;;;14.20;6.60;;;-3.20;99.90;;;;;;4887731;29;20048;-91
2022/03/09 06:32:40;;;;;;;15.60;7.57;;;-3.10;99.90;;;;;;4887508;29;20083;-91
2022/03/09 06:35:07;;;;;;;12.13;6.87;;;-2.80;99.90;;;;;;4887483;29;20048;-95
2022/03/09 06:37:33;;;;;;;12.67;6.97;;;-3.00;99.90;;;;;;4887670;29;20089;-91
2022/03/09 06:39:59;;;;;;;16.50;7.00;;;-2.50;99.90;;;;;;4888321;29;20441;-91
2022/03/09 06:42:26;;;;;;;14.17;7.40;;;-2.90;99.90;;;;;;4887403;29;20079;-96
2022/03/09 06:44:52;;;;;;;12.40;6.67;;;-2.90;99.90;;;;;;4903305;29;20040;-91
2022/03/09 06:47:18;;;;;;;12.20;7.23;;;-2.80;99.90;;;;;;4887661;29;20508;-92
2022/03/09 06:49:44;;;;;;;9.83;6.40;;;-2.70;99.90;;;;;;4887412;29;20048;-90
2022/03/09 06:52:10;;;;;;;12.20;6.87;;;-2.70;99.90;;;;;;4887710;29;20059;-90
2022/03/09 06:54:36;;;;;;;10.57;6.33;;;-2.60;99.90;;;;;;4887089;29;20044;-91
2022/03/09 06:57:02;;;;;;;11.50;6.77;;;-2.50;99.90;;;;;;4902797;29;20055;-96
2022/03/09 06:59:28;;;;;;;18.30;8.67;;;-2.40;99.90;;;;;;4887179;29;20044;-95
2022/03/09 07:01:53;;;;;;;14.73;7.83;;;-2.30;99.90;;;;;;4902870;29;20055;-91
2022/03/09 07:04:19;;;;;;;13.97;7.20;;;-2.30;99.90;;;;;;4903170;29;20138;-90
2022/03/09 07:06:45;;;;;;;11.63;6.50;;;-2.10;99.90;;;;;;4887608;29;20064;-91
2022/03/09 07:09:11;;;;;;;12.43;6.87;;;-1.70;99.90;;;;;;4888844;29;20040;-95
2022/03/09 07:11:37;;;;;;;12.80;6.47;;;-2.00;99.90;;;;;;4887322;29;20564;-90
2022/03/09 07:14:03;;;;;;;11.17;6.93;;;-2.00;99.90;;;;;;4887199;29;20087;-90
2022/03/09 07:16:29;;;;;;;12.83;7.10;;;-2.00;99.90;;;;;;4902447;29;20044;-91
2022/03/09 07:18:56;;;;;;;12.40;6.73;;;-1.90;99.90;;;;;;4887093;29;20411;-94
2022/03/09 07:21:22;;;;;;;11.70;6.83;;;-1.80;99.90;;;;;;4887691;29;20048;-95
2022/03/09 07:23:47;;;;;;;12.97;7.03;;;-1.80;99.90;;;;;;4887259;29;20522;-90
2022/03/09 07:26:14;;;;;;;11.70;7.40;;;-1.70;99.90;;;;;;4917770;29;20044;-90
2022/03/09 07:28:39;;;;;;;14.13;6.90;;;-1.60;99.90;;;;;;4902785;29;20052;-96
2022/03/09 07:31:05;;;;;;;11.87;7.40;;;-1.10;99.90;;;;;;4886891;29;20048;-90
2022/03/09 07:33:32;;;;;;;15.17;7.63;;;-1.70;99.90;;;;;;4886934;29;20044;-96
2022/03/09 07:36:00;;;;;;;11.50;6.83;;;-0.50;99.90;;;;;;4886656;29;20047;-95
2022/03/09 07:38:26;;;;;;;14.07;7.20;;;-1.20;99.90;;;;;;4887007;29;20048;-89
2022/03/09 07:40:52;;;;;;;11.80;6.90;;;-1.10;99.90;;;;;;4886588;29;20138;-90
2022/03/09 07:43:18;;;;;;;12.43;6.67;;;-1.00;99.90;;;;;;4886455;29;20080;-90
2022/03/09 07:45:44;;;;;;;10.83;7.10;;;-0.90;99.90;;;;;;4917037;29;20563;-95
2022/03/09 07:48:09;;;;;;;20.20;7.60;;;-0.40;99.90;;;;;;4886221;29;20083;-91
2022/03/09 07:50:36;;;;;;;12.57;7.40;;;-0.70;99.90;;;;;;4902423;29;20040;-93
2022/03/09 07:53:03;;;;;;;10.63;6.20;;;-0.50;99.90;;;;;;4886547;29;20048;-96
2022/03/09 07:55:29;;;;;;;11.73;7.03;;;-0.40;99.90;;;;;;4902718;29;20140;-90
2022/03/09 07:57:55;;;;;;;12.07;6.77;;;-0.20;99.90;;;;;;4886487;29;20139;-91
2022/03/09 08:00:21;;;;;;;12.17;7.33;;;0.00;99.90;;;;;;4886050;29;20060;-94
2022/03/09 08:02:49;;;;;;;11.67;7.17;;;0.30;99.90;;;;;;4885553;29;20055;-95
2022/03/09 08:05:16;;;;;;;15.00;7.00;;;0.20;99.90;;;;;;4885524;29;20119;-95
2022/03/09 08:07:43;;;;;;;12.77;7.10;;;0.30;99.90;;;;;;4885705;29;20056;-96
2022/03/09 08:10:10;;;;;;;11.97;7.17;;;0.50;99.90;;;;;;4901824;29;20056;-95
2022/03/09 08:12:36;;;;;;;13.70;7.10;;;0.70;99.90;;;;;;4885992;29;20044;-92
2022/03/09 08:15:03;;;;;;;13.27;7.13;;;0.80;99.90;;;;;;4901201;29;20051;-91
2022/03/09 08:17:29;;;;;;;12.93;7.40;;;0.90;99.90;;;;;;4901483;29;20075;-96
2022/03/09 08:19:55;;;;;;;13.97;7.07;;;1.00;99.90;;;;;;4885391;29;20408;-91
2022/03/09 08:22:24;;;;;;;12.03;7.50;;;1.10;99.90;;;;;;4901937;29;20045;-95
2022/03/09 08:24:50;;;;;;;10.80;6.60;;;1.20;99.90;;;;;;4887794;29;20071;-93
2022/03/09 08:27:18;;;;;;;11.60;6.80;;;1.30;99.90;;;;;;4886319;29;20574;-96
2022/03/09 08:29:47;;;;;;;12.63;6.83;;;1.50;98.70;;;;;;4886605;29;20047;-96
2022/03/09 08:32:13;;;;;;;10.87;6.53;;;1.60;80.50;;;;;;4886344;29;20062;-95
2022/03/09 08:34:39;;;;;;;12.07;6.27;;;1.80;7.50;;;;;;4886601;29;20048;-92
2022/03/09 08:37:05;;;;;;;10.07;6.70;;;2.00;1.00;;;;;;4903032;29;20492;-91
2022/03/09 08:39:31;;;;;;;9.43;6.00;;;2.40;1.00;;;;;;4904270;29;20047;-92
2022/03/09 08:41:57;;;;;;;9.07;5.97;;;2.30;1.00;;;;;;4902877;29;20142;-94
2022/03/09 08:44:24;;;;;;;14.33;6.33;;;2.50;1.00;;;;;;4885758;29;20048;-95
2022/03/09 08:46:53;;;;;;;9.83;6.30;;;2.60;1.00;;;;;;4886695;29;20107;-91
2022/03/09 08:49:19;;;;;;;12.80;6.50;;;2.70;1.00;;;;;;4886328;29;20048;-96
2022/03/09 08:51:45;;;;;;;10.67;6.23;;;2.90;99.90;;;;;;4886268;29;20048;-96
2022/03/09 08:54:11;;;;;;;13.27;5.73;;;3.00;99.90;;;;;;4887043;29;20119;-94
2022/03/09 08:56:37;;;;;;;10.67;5.83;;;3.20;99.90;;;;;;4887209;29;20088;-93
2022/03/09 08:59:03;;;;;;;11.67;6.27;;;3.30;99.90;;;;;;4885981;29;20509;-94
2022/03/09 09:01:29;;;;;;;10.37;6.00;;;3.50;99.90;;;;;;4842164;29;1320976;-93
2022/03/09 09:03:55;;;;;;;9.67;6.03;;;3.70;99.90;;;;;;4902700;29;20527;-94
2022/03/09 09:06:21;;;;;;;11.00;6.00;;;3.60;99.90;;;;;;4902133;29;20056;-92
2022/03/09 09:08:47;;;;;;;9.90;5.50;;;4.00;99.90;;;;;;4886670;29;20087;-94
2022/03/09 09:11:12;;;;;;;10.60;6.27;;;4.00;93.00;;;;;;4903051;29;20095;-94
2022/03/09 09:13:38;;;;;;;11.77;6.03;;;4.00;1.00;;;;;;4887286;29;20044;-93
2022/03/09 09:16:05;;;;;;;10.70;6.10;;;4.40;1.00;;;;;;4886487;29;20052;-96
2022/03/09 09:18:31;;;;;;;12.80;6.50;;;4.30;1.00;;;;;;4886525;29;20048;-96
2022/03/09 09:20:57;;;;;;;10.47;6.37;;;4.40;1.00;;;;;;4917699;29;20048;-96
2022/03/09 09:23:23;;;;;;;8.27;6.13;;;4.80;1.00;;;;;;4918215;29;20143;-92
2022/03/09 09:25:49;;;;;;;11.53;6.10;;;4.70;1.00;;;;;;4888049;29;20221;-93
2022/03/09 09:28:16;;;;;;;10.20;5.97;;;4.70;1.00;;;;;;4887225;29;20187;-93
2022/03/09 09:30:43;;;;;;;11.07;7.30;;;4.90;1.00;;;;;;4901802;29;20048;-93
2022/03/09 09:33:09;;;;;;;11.73;6.30;;;4.90;1.00;;;;;;4902324;29;20095;-94
2022/03/09 09:35:39;;;;;;;10.30;5.43;;;5.10;1.00;;;;;;4917622;29;20083;-93
2022/03/09 09:38:08;;;;;;;8.17;5.73;;;5.30;99.90;;;;;;4900986;29;20130;-96
2022/03/09 09:40:40;;;;;;;10.00;5.40;;;5.30;99.90;;;;;;4887337;29;20052;-96
2022/03/09 09:43:08;;;;;;;9.87;5.33;;;5.50;99.90;;;;;;4885941;29;20044;-95
2022/03/09 09:45:35;;;;;;;12.73;5.45;;;5.60;99.90;;;;;;4885972;29;20076;-96
2022/03/09 09:48:06;;;;;;;9.60;5.78;;;5.70;99.90;;;;;;4886248;29;20040;-92
2022/03/09 09:50:32;;;;;;;13.88;5.97;;;5.80;99.90;;;;;;4885674;29;20399;-94
2022/03/09 09:53:02;;;;;;;10.00;6.15;;;6.00;99.90;;;;;;4885346;29;20081;-95
2022/03/09 09:55:27;;;;;;;9.25;5.40;;;6.10;99.90;;;;;;4886108;29;20044;-96
2022/03/09 09:57:55;;;;;;;10.20;5.70;;;6.20;99.90;;;;;;4900692;29;20107;-94
2022/03/09 10:00:22;;;;;;;10.25;5.13;;;6.30;99.90;;;;;;4885158;29;20147;-94
2022/03/09 10:02:48;;;;;;;9.85;5.80;;;6.40;99.90;;;;;;4916287;29;20065;-96
2022/03/09 10:05:16;;;;;;;11.25;6.38;;;6.60;99.90;;;;;;4885042;29;20064;-95
2022/03/09 10:08:04;;;;;;;19.15;5.43;;;6.80;99.90;;;;;;4900446;29;20403;-94
2022/03/09 10:10:31;;;;;;;8.65;5.78;;;7.00;42.30;;;;;;4903247;29;20047;-95
2022/03/09 10:13:10;;;;;;;11.55;5.50;;;7.20;99.90;;;;;;4888771;29;20044;-95
2022/03/09 10:15:36;;;;;;;8.43;5.72;;;7.80;1.00;;;;;;4903975;29;20040;-96
2022/03/09 10:18:31;;;;;;;8.48;5.30;;;8.90;96.10;;;;;;4903680;29;20491;-96
2022/03/09 10:21:14;;;;;;;9.85;5.63;;;10.30;1.00;;;;;;4884776;29;20060;-95
2022/03/09 10:24:07;;;;;;;8.20;5.90;;;11.30;1.00;;;;;;4889635;29;20130;-96
2022/03/09 10:26:35;;;;;;;9.45;5.60;;;12.20;1.00;;;;;;4902894;29;20051;-95
2022/03/09 10:29:07;;;;;;;8.02;6.07;;;12.70;1.00;;;;;;4903846;29;20060;-96
2022/03/09 10:31:42;;;;;;;13.90;6.10;;;13.00;1.00;;;;;;4888447;29;20048;-96
2022/03/09 10:34:16;;;;;;;8.68;5.55;;;13.40;1.00;;;;;;4888294;29;20143;-94
2022/03/09 10:37:00;;;;;;;8.63;5.97;;;13.50;1.00;;;;;;4889403;29;20499;-95
2022/03/09 10:39:33;;;;;;;7.78;5.10;;;13.90;1.00;;;;;;4888326;29;20055;-95
2022/03/09 10:41:59;;;;;;;8.65;5.40;;;13.90;1.00;;;;;;4888071;29;20134;-95
2022/03/09 10:44:45;;;;;;;8.57;5.88;;;14.00;1.00;;;;;;4888181;29;20139;-94
2022/03/09 10:47:12;;;;;;;8.43;5.60;;;14.10;1.00;;;;;;4887934;29;20138;-95
2022/03/09 10:49:38;;;;;;;6.97;6.25;;;14.20;1.00;;;;;;4887698;29;20071;-94
2022/03/09 10:52:04;;;;;;;12.20;6.20;;;14.40;1.00;;;;;;4904501;29;20051;-95
2022/03/09 10:54:34;;;;;;;10.00;5.68;;;14.80;1.00;;;;;;4887914;29;20044;-95
2022/03/09 10:57:10;;;;;;;7.28;5.72;;;15.10;1.00;;;;;;4902684;29;20044;-96
2022/03/09 10:59:45;;;;;;;7.57;5.72;;;15.50;1.00;;;;;;4887721;29;20515;-96
2022/03/09 11:02:11;;;;;;;8.07;5.78;;;15.60;1.00;;;;;;4887500;29;20052;-95
2022/03/09 11:04:39;;;;;;;9.52;6.00;;;15.50;1.00;;;;;;4887755;29;20051;-93
2022/03/09 11:07:06;;;;;;;9.38;5.50;;;15.50;1.00;;;;;;4888224;29;20051;-95
2022/03/09 11:09:32;;;;;;;7.28;5.18;;;15.30;1.00;;;;;;4887968;29;20510;-96
2022/03/09 11:11:59;;;;;;;8.38;5.90;;;15.20;1.00;;;;;;4903076;29;20047;-95
2022/03/09 11:14:29;;;;;;;8.73;5.78;;;15.20;1.00;;;;;;4918598;29;20514;-94
2022/03/09 11:17:00;;;;;;;9.48;5.50;;;15.20;1.00;;;;;;4887324;29;20148;-96
2022/03/09 11:19:27;;;;;;;8.05;5.90;;;15.30;1.00;;;;;;4902913;29;20044;-94
2022/03/09 11:21:53;;;;;;;7.07;6.13;;;15.50;1.00;;;;;;4887482;29;20142;-95
2022/03/09 11:24:20;;;;;;;6.65;5.75;;;15.80;1.00;;;;;;4902804;29;20122;-96
2022/03/09 11:26:49;;;;;;;8.35;6.05;;;16.00;1.00;;;;;;4886903;29;20048;-94
2022/03/09 11:29:16;;;;;;;10.07;5.82;;;16.20;1.00;;;;;;4887159;29;20090;-96
2022/03/09 11:31:49;;;;;;;7.22;5.05;;;16.40;1.00;;;;;;4887069;29;20075;-96
2022/03/09 11:34:44;;;;;;;8.27;5.70;;;16.50;1.00;;;;;;4902483;29;20168;-96
2022/03/09 11:37:17;;;;;;;8.20;5.90;;;16.60;1.00;;;;;;4887371;29;20137;-96
2022/03/09 11:40:15;;;;;;;7.55;5.75;;;16.60;1.00;;;;;;4886936;29;20052;-95
2022/03/09 11:42:44;;;;;;;7.47;5.40;;;16.40;1.00;;;;;;4886174;29;20076;-96
2022/03/09 11:45:22;;;;;;;6.25;5.13;;;16.50;1.00;;;;;;4886472;29;20107;-94
2022/03/09 11:47:57;;;;;;;10.80;8.48;;;16.50;1.00;;;;;;4902428;29;20396;-95
2022/03/09 11:50:23;;;;;;;9.32;6.38;;;16.70;1.00;;;;;;4902107;29;20055;-95
2022/03/09 11:52:55;;;;;;;7.00;5.90;;;16.70;1.00;;;;;;4887185;29;20050;-95
2022/03/09 11:55:21;;;;;;;7.57;5.50;;;16.90;1.00;;;;;;4902006;29;20360;-94
2022/03/09 11:57:50;;;;;;;10.25;5.97;;;17.00;1.00;;;;;;4886766;29;20564;-96
2022/03/09 12:00:21;;;;;;;7.53;6.38;;;17.10;1.00;;;;;;4902121;29;20504;-93
2022/03/09 12:02:54;;;;;;;7.88;5.97;;;16.80;1.00;;;;;;4901947;29;20048;-96
2022/03/09 12:05:35;;;;;;;10.48;6.10;;;16.80;1.00;;;;;;4886531;29;20044;-95
2022/03/09 12:08:10;;;;;;;10.85;5.70;;;16.80;1.00;;;;;;4886802;29;20139;-96
2022/03/09 12:10:41;;;;;;;6.93;5.78;;;16.60;1.00;;;;;;4886762;29;20620;-95
2022/03/09 12:13:16;;;;;;;8.38;5.32;;;16.40;1.00;;;;;;4901774;29;20045;-96
2022/03/09 12:16:00;;;;;;;8.48;6.00;;;16.50;1.00;;;;;;4917712;29;20151;-95
2022/03/09 12:18:43;;;;;;;8.55;5.88;;;16.40;1.00;;;;;;4901621;29;20503;-94
2022/03/09 12:21:11;;;;;;;7.80;6.13;;;16.60;1.00;;;;;;4886083;29;20058;-95
2022/03/09 12:24:16;;;;;;;7.57;5.93;;;16.70;1.00;;;;;;4886987;29;20434;-94
2022/03/09 12:26:47;;;;;;;7.13;5.78;;;16.60;1.00;;;;;;4886076;29;20062;-94
2022/03/09 12:29:21;;;;;;;8.77;6.18;;;16.20;1.00;;;;;;4886318;29;20076;-94
2022/03/09 12:31:59;;;;;;;8.23;6.47;;;16.10;1.00;;;;;;4901202;29;20044;-95
2022/03/09 12:34:26;;;;;;;7.25;5.97;;;16.10;1.00;;;;;;4902007;29;20138;-96
2022/03/09 12:36:53;;;;;;;6.70;5.75;;;16.10;1.00;;;;;;4885937;29;20483;-95
2022/03/09 12:39:19;;;;;;;7.55;5.72;;;16.20;1.00;;;;;;4886980;29;20044;-94
2022/03/09 12:41:51;;;;;;;10.10;6.78;;;16.30;1.00;;;;;;4886006;29;20075;-94
2022/03/09 12:44:18;;;;;;;9.57;6.45;;;16.20;1.00;;;;;;4888715;29;20052;-96
2022/03/09 12:46:47;;;;;;;8.25;5.85;;;16.00;1.00;;;;;;4904240;29;20052;-93
2022/03/09 12:49:39;;;;;;;9.63;6.70;;;16.00;1.00;;;;;;4889089;29;20079;-96
2022/03/09 12:52:16;;;;;;;8.10;6.78;;;15.90;1.00;;;;;;4903489;29;20120;-96
2022/03/09 12:54:49;;;;;;;7.40;5.50;;;15.90;1.00;;;;;;4901483;29;20464;-95